Airfield :
LOGIN :

Register | Disclaimer

   EN    FR    IT 

 










Legend :    VFR   Marginal VFR   IFR   Intensive IFR   Very Intensive IFR
Visi :
Ceiling :
>= 8 km
>= 3000ft
5 to 8 km
1000 to 3000 ft
1500m to 5 km
500 to 1000 ft
800 to 1500m
200 to 500 ft
< 800m
< 200 ft
Symbols :   Thunderstorms  Fog  Heavy snow  Heavy precipitations  Wind > 20 kt
SIGMETs :     Misc.  Thunderstorms  Icing  Turbulence  Mountain Waves  Volcanic Ashes






- Airport Elevation : 39 ft
- IATA code : ONQ


LTAS - Zonguldak

CURRENT METAR :
  • 071450Z 02007KT 350V090 9999 BKN025 BKN080 29/22 Q1007

EXPIRED METARs :
  • 071350Z 01009KT 350V050 9999 BKN030 BKN080 29/23 Q1007
  • 071250Z 36009KT 320V030 9999 BKN030 BKN080 30/23 Q1008

TAF TAF LTAS
Valid from the 07 at 15:00 until the 08 at 00:00 UTC


071340Z 0715/0724 01009KT 9999 SCT040
BECMG 0716/0718 CAVOK



MET'MAP, your aeronautical weather chart ! - Copyright ORBIFLY December 2007 - Disclaimer

ORBIFLY MET'MAP TEAM :

Programming & Development : Alexandra Zaïnal
Original concept : Baudouin d'Aumeries
Technical & hardware support : Manuel Goepfert
Assistance : Marc-Olivier Méhu




SOURCES & CREDITS :

   NOAA